Time;durP1;ratioP1;P1;durP2;ratioP2;P2;SDS_P1;SDS_P2;PMS_P1;PMS_P2;Temp;Humidity;BMP_temperature;BMP_pressure;BME280_temperature;BME280_humidity;BME280_pressure;Samples;Min_cycle;Max_cycle;Signal;HPM_P1;HPM_P2
2023/05/18 00:00:36;;;;;;;4.78;3.70;;;13.00;99.90;;;;;;5072797;28;20491;-68
2023/05/18 00:03:02;;;;;;;7.43;3.72;;;12.90;99.90;;;;;;5072314;28;20029;-68
2023/05/18 00:05:32;;;;;;;7.25;4.20;;;13.00;99.90;;;;;;5072104;28;20501;-68
2023/05/18 00:08:00;;;;;;;6.95;4.03;;;13.00;99.90;;;;;;5072291;28;20016;-68
2023/05/18 00:10:25;;;;;;;7.22;4.03;;;13.00;99.90;;;;;;5072663;28;20031;-68
2023/05/18 00:12:51;;;;;;;4.68;3.70;;;12.90;99.90;;;;;;5072165;28;20032;-68
2023/05/18 00:15:17;;;;;;;6.18;4.22;;;13.00;99.90;;;;;;5072293;28;20031;-68
2023/05/18 00:17:43;;;;;;;6.38;3.95;;;13.00;99.90;;;;;;5072095;28;20071;-67
2023/05/18 00:20:09;;;;;;;6.13;4.05;;;13.00;99.90;;;;;;5071764;28;20021;-68
2023/05/18 00:22:34;;;;;;;6.10;3.72;;;13.10;99.90;;;;;;5072158;28;20502;-67
2023/05/18 00:25:00;;;;;;;5.57;3.60;;;13.10;99.90;;;;;;5070720;28;20029;-68
2023/05/18 00:27:26;;;;;;;6.20;3.97;;;13.10;99.90;;;;;;5072081;28;20032;-68
2023/05/18 00:29:51;;;;;;;5.72;3.88;;;13.20;99.90;;;;;;5071160;28;20024;-68
2023/05/18 00:32:17;;;;;;;4.07;3.50;;;13.20;99.90;;;;;;5072037;28;20487;-68
2023/05/18 00:34:43;;;;;;;6.90;3.85;;;13.20;99.90;;;;;;5071328;28;20066;-68
2023/05/18 00:37:08;;;;;;;4.30;3.90;;;13.20;99.90;;;;;;5071441;28;20052;-68
2023/05/18 00:39:34;;;;;;;5.32;3.85;;;13.30;99.90;;;;;;5072066;28;20051;-68
2023/05/18 00:42:00;;;;;;;5.43;3.55;;;13.20;99.90;;;;;;5071722;28;20035;-68
2023/05/18 00:44:25;;;;;;;7.18;3.90;;;13.20;99.90;;;;;;5071768;28;20028;-68
2023/05/18 00:46:51;;;;;;;5.47;4.00;;;13.20;99.90;;;;;;5071460;28;20070;-69
2023/05/18 00:49:17;;;;;;;5.78;3.70;;;13.20;99.90;;;;;;5071663;28;20074;-68
2023/05/18 00:51:44;;;;;;;5.55;3.70;;;13.20;99.90;;;;;;5071597;28;20038;-69
2023/05/18 00:54:09;;;;;;;6.25;3.72;;;13.20;99.90;;;;;;5071547;28;20008;-68
2023/05/18 00:56:40;;;;;;;5.15;3.78;;;13.20;99.90;;;;;;5071401;28;20032;-67
2023/05/18 00:59:08;;;;;;;5.53;3.80;;;13.30;99.90;;;;;;5071677;28;20029;-68
2023/05/18 01:01:34;;;;;;;5.45;3.90;;;13.20;99.90;;;;;;5071321;28;20021;-68
2023/05/18 01:04:01;;;;;;;5.88;3.80;;;13.30;99.90;;;;;;5071021;28;20056;-68
2023/05/18 01:06:31;;;;;;;4.25;3.72;;;13.30;99.90;;;;;;5071275;28;20037;-68
2023/05/18 01:09:03;;;;;;;5.97;3.90;;;13.30;99.90;;;;;;5071227;28;20021;-68
2023/05/18 01:11:50;;;;;;;4.82;3.65;;;13.30;99.90;;;;;;5071622;28;20028;-68
2023/05/18 01:14:32;;;;;;;7.10;3.78;;;13.30;99.90;;;;;;5071231;28;20021;-68
2023/05/18 01:17:20;;;;;;;5.30;3.60;;;13.30;99.90;;;;;;5071092;28;20043;-68
2023/05/18 01:20:23;;;;;;;4.55;3.47;;;13.30;99.90;;;;;;5070925;28;20542;-68
2023/05/18 01:23:08;;;;;;;4.88;3.88;;;13.20;99.90;;;;;;5071243;28;20115;-67
2023/05/18 01:25:52;;;;;;;6.88;4.38;;;13.20;99.90;;;;;;5071046;28;20040;-68
2023/05/18 01:28:21;;;;;;;5.25;3.72;;;13.20;99.90;;;;;;5070933;28;20067;-69
2023/05/18 01:30:48;;;;;;;4.60;3.40;;;13.10;99.90;;;;;;5071068;28;20032;-68
2023/05/18 01:33:14;;;;;;;4.97;3.40;;;13.10;99.90;;;;;;5070514;28;20056;-67
2023/05/18 01:35:48;;;;;;;5.18;3.95;;;13.00;99.90;;;;;;5070936;28;20153;-69
2023/05/18 01:38:20;;;;;;;6.22;3.75;;;13.00;99.90;;;;;;5070946;28;20040;-68
2023/05/18 01:41:01;;;;;;;4.85;3.72;;;13.00;99.90;;;;;;5072217;28;20028;-67
2023/05/18 01:43:34;;;;;;;4.22;3.42;;;13.00;99.90;;;;;;5075313;28;20487;-68
2023/05/18 01:46:26;;;;;;;5.30;3.67;;;13.00;99.90;;;;;;5075252;28;20055;-68
2023/05/18 01:49:00;;;;;;;6.30;3.47;;;12.90;99.90;;;;;;5072165;28;20488;-69
2023/05/18 01:51:28;;;;;;;;;;;12.90;99.90;;;;;;5073316;28;20032;-68
2023/05/18 01:54:03;;;;;;;4.78;3.63;;;12.80;99.90;;;;;;5072552;28;19905;-68
2023/05/18 01:56:30;;;;;;;5.55;3.60;;;12.80;99.90;;;;;;5072599;28;20111;-67
2023/05/18 01:58:57;;;;;;;6.60;3.90;;;12.70;99.90;;;;;;5072542;28;20086;-68
2023/05/18 02:01:23;;;;;;;5.47;3.67;;;12.70;99.90;;;;;;5072072;28;20124;-68
2023/05/18 02:03:50;;;;;;;5.10;3.55;;;12.70;99.90;;;;;;5072752;28;20367;-68
2023/05/18 02:06:15;;;;;;;6.05;3.67;;;12.70;99.90;;;;;;5072165;28;20045;-67
2023/05/18 02:08:42;;;;;;;5.82;3.45;;;12.70;99.90;;;;;;5072291;28;20483;-68
2023/05/18 02:11:07;;;;;;;6.70;3.58;;;12.70;99.90;;;;;;5072467;28;20059;-67
2023/05/18 02:13:33;;;;;;;6.00;3.67;;;12.70;99.90;;;;;;5072520;28;20060;-67
2023/05/18 02:15:59;;;;;;;5.72;3.55;;;12.70;99.90;;;;;;5071897;28;20107;-68
2023/05/18 02:18:25;;;;;;;4.53;3.50;;;12.70;99.90;;;;;;5072144;28;20479;-69
2023/05/18 02:20:58;;;;;;;5.10;3.50;;;12.70;99.90;;;;;;5072205;28;20519;-69
2023/05/18 02:23:24;;;;;;;4.55;3.55;;;12.60;99.90;;;;;;5071844;28;20060;-69
2023/05/18 02:25:50;;;;;;;4.22;3.63;;;12.60;99.90;;;;;;5073521;28;20060;-69
2023/05/18 02:28:16;;;;;;;4.55;3.40;;;12.60;99.90;;;;;;5074071;28;20025;-69
2023/05/18 02:30:42;;;;;;;5.20;3.70;;;12.60;99.90;;;;;;5073948;28;20066;-69
2023/05/18 02:33:07;;;;;;;5.22;3.40;;;12.60;99.90;;;;;;5074129;28;20467;-69
2023/05/18 02:35:34;;;;;;;7.50;3.83;;;12.60;99.90;;;;;;5073994;28;20063;-69
2023/05/18 02:38:01;;;;;;;4.45;3.63;;;12.50;99.90;;;;;;5074560;28;20070;-68
2023/05/18 02:40:27;;;;;;;6.97;3.33;;;12.50;99.90;;;;;;5074046;28;20040;-69
2023/05/18 02:42:52;;;;;;;4.85;3.40;;;12.50;99.90;;;;;;5073756;28;20028;-68
2023/05/18 02:45:19;;;;;;;4.70;3.47;;;12.50;99.90;;;;;;5072355;28;20040;-69
2023/05/18 02:47:45;;;;;;;5.07;3.55;;;12.40;99.90;;;;;;5073921;28;20028;-69
2023/05/18 02:50:11;;;;;;;5.70;2.92;;;12.40;99.90;;;;;;5073752;28;20689;-69
2023/05/18 02:52:38;;;;;;;5.43;3.40;;;12.40;99.90;;;;;;5073586;28;20024;-69
2023/05/18 02:55:07;;;;;;;9.45;3.58;;;12.40;99.90;;;;;;5073681;28;20029;-69
2023/05/18 02:57:33;;;;;;;5.05;3.50;;;12.30;99.90;;;;;;5073723;28;20086;-69
2023/05/18 02:59:58;;;;;;;6.85;3.20;;;12.30;99.90;;;;;;5073597;28;20024;-69
2023/05/18 03:02:26;;;;;;;4.95;3.50;;;12.30;99.90;;;;;;5072353;28;20537;-69
2023/05/18 03:04:56;;;;;;;4.82;3.10;;;12.30;99.90;;;;;;5073687;28;20132;-69
2023/05/18 03:07:22;;;;;;;4.45;3.33;;;12.30;99.90;;;;;;5073720;28;20037;-67
2023/05/18 03:09:48;;;;;;;5.32;3.50;;;12.30;99.90;;;;;;5073490;28;20024;-69
2023/05/18 03:12:13;;;;;;;7.82;3.45;;;12.30;99.90;;;;;;5073390;28;20032;-69
2023/05/18 03:14:39;;;;;;;5.75;3.28;;;12.30;99.90;;;;;;5073103;28;20108;-68
2023/05/18 03:17:05;;;;;;;5.07;3.28;;;12.30;99.90;;;;;;5073461;28;20024;-68
2023/05/18 03:19:33;;;;;;;7.03;3.70;;;12.30;99.90;;;;;;5073433;28;20029;-68
2023/05/18 03:21:59;;;;;;;5.00;3.20;;;12.20;99.90;;;;;;5073417;28;20056;-68
2023/05/18 03:24:25;;;;;;;5.90;3.22;;;12.20;99.90;;;;;;5073132;28;20558;-68
2023/05/18 03:26:53;;;;;;;5.82;4.05;;;12.30;99.90;;;;;;5073302;28;20510;-69
2023/05/18 03:29:20;;;;;;;5.18;3.20;;;12.30;99.90;;;;;;5073235;28;20032;-69
2023/05/18 03:31:45;;;;;;;4.93;3.30;;;12.30;99.90;;;;;;5072900;28;20025;-69
2023/05/18 03:34:11;;;;;;;5.07;3.67;;;12.20;99.90;;;;;;5073317;28;20040;-69
2023/05/18 03:36:37;;;;;;;5.47;3.50;;;12.20;99.90;;;;;;5073015;28;20032;-68
2023/05/18 03:39:05;;;;;;;6.85;3.90;;;12.20;99.90;;;;;;5072875;28;20044;-69
2023/05/18 03:41:31;;;;;;;6.00;3.55;;;12.10;99.90;;;;;;5072854;28;20032;-69
2023/05/18 03:43:57;;;;;;;5.53;3.40;;;12.10;99.90;;;;;;5071326;28;20024;-69
2023/05/18 03:46:23;;;;;;;5.75;3.75;;;12.10;99.90;;;;;;5072979;28;20502;-69
2023/05/18 03:48:49;;;;;;;4.90;3.58;;;12.10;99.90;;;;;;5072722;28;20074;-69
2023/05/18 03:51:15;;;;;;;4.15;3.45;;;12.00;99.90;;;;;;5072684;28;20551;-69
2023/05/18 03:53:41;;;;;;;4.60;3.30;;;12.00;99.90;;;;;;5072576;28;20298;-69
2023/05/18 03:56:07;;;;;;;5.97;3.50;;;12.00;99.90;;;;;;5072733;28;20025;-68
2023/05/18 03:58:33;;;;;;;5.45;3.90;;;12.10;99.90;;;;;;5072325;28;20494;-69
2023/05/18 04:01:00;;;;;;;5.10;3.50;;;12.00;99.90;;;;;;5072602;28;20032;-69
2023/05/18 04:03:26;;;;;;;6.07;3.65;;;12.00;99.90;;;;;;5072271;28;20021;-69
2023/05/18 04:05:52;;;;;;;5.38;3.30;;;12.00;99.90;;;;;;5071493;28;20039;-69
2023/05/18 04:08:19;;;;;;;4.22;3.42;;;11.90;99.90;;;;;;5072446;28;20103;-69
2023/05/18 04:10:45;;;;;;;5.78;3.70;;;11.90;99.90;;;;;;5072185;28;20529;-68
2023/05/18 04:13:11;;;;;;;7.03;3.58;;;11.80;99.90;;;;;;5071855;28;20027;-69
2023/05/18 04:15:37;;;;;;;8.85;3.90;;;11.80;99.90;;;;;;5072235;28;20033;-69
2023/05/18 04:18:03;;;;;;;6.28;3.92;;;11.80;99.90;;;;;;5072325;28;20099;-68
2023/05/18 04:20:29;;;;;;;6.32;3.88;;;11.80;99.90;;;;;;5072233;28;20031;-69
2023/05/18 04:22:58;;;;;;;5.47;3.88;;;11.80;99.90;;;;;;5070030;28;20038;-68
2023/05/18 04:25:26;;;;;;;6.20;3.90;;;11.80;99.90;;;;;;5071816;28;20051;-69
2023/05/18 04:27:53;;;;;;;5.10;3.60;;;11.80;99.90;;;;;;5070988;28;20033;-69
2023/05/18 04:30:22;;;;;;;6.18;3.97;;;11.80;99.90;;;;;;5071081;28;20119;-69
2023/05/18 04:32:48;;;;;;;4.70;3.55;;;11.70;99.90;;;;;;5071301;28;20070;-69
2023/05/18 04:35:15;;;;;;;8.65;4.00;;;11.70;99.90;;;;;;5071737;28;20143;-69
2023/05/18 04:37:41;;;;;;;6.15;3.92;;;11.70;99.90;;;;;;5071678;28;20028;-69
2023/05/18 04:40:15;;;;;;;6.60;4.07;;;11.70;99.90;;;;;;5071703;28;20521;-69
2023/05/18 04:42:46;;;;;;;5.03;3.80;;;11.70;99.90;;;;;;5071627;28;20058;-69
2023/05/18 04:45:24;;;;;;;6.13;3.85;;;11.60;99.90;;;;;;5071802;28;20082;-69
2023/05/18 04:47:53;;;;;;;6.28;3.90;;;11.60;99.90;;;;;;5071800;28;20094;-69
2023/05/18 04:50:22;;;;;;;6.13;3.90;;;11.50;99.90;;;;;;5071472;28;20399;-68
2023/05/18 04:52:52;;;;;;;6.30;3.83;;;11.40;99.90;;;;;;5071799;28;20024;-68
2023/05/18 04:55:26;;;;;;;5.60;4.05;;;11.40;99.90;;;;;;5071017;28;20512;-69
2023/05/18 04:57:55;;;;;;;4.88;4.22;;;11.40;99.90;;;;;;5071568;28;20024;-69
2023/05/18 05:00:24;;;;;;;7.20;4.10;;;11.40;99.90;;;;;;5071475;28;20028;-69
2023/05/18 05:02:50;;;;;;;7.25;4.30;;;11.30;99.90;;;;;;5071852;28;20029;-69
2023/05/18 05:05:16;;;;;;;5.68;3.90;;;11.40;99.90;;;;;;5071371;28;20032;-68
2023/05/18 05:07:42;;;;;;;6.47;4.05;;;11.40;99.90;;;;;;5071379;28;20051;-69
2023/05/18 05:10:08;;;;;;;5.25;4.10;;;11.50;99.90;;;;;;5071094;28;20554;-69
2023/05/18 05:12:37;;;;;;;6.47;3.95;;;11.50;99.90;;;;;;5071745;28;20097;-69
2023/05/18 05:15:03;;;;;;;5.30;3.97;;;11.60;99.90;;;;;;5070884;28;20106;-69
2023/05/18 05:17:29;;;;;;;6.63;3.95;;;11.60;99.90;;;;;;5071159;28;20484;-69
2023/05/18 05:19:55;;;;;;;7.63;4.35;;;11.50;99.90;;;;;;5071437;28;20031;-68
2023/05/18 05:22:20;;;;;;;5.43;3.78;;;11.60;99.90;;;;;;5071222;28;20103;-69
2023/05/18 05:24:46;;;;;;;5.30;3.80;;;11.50;99.90;;;;;;5070886;28;20078;-69
2023/05/18 05:27:12;;;;;;;6.82;4.22;;;11.50;99.90;;;;;;5071105;28;20037;-69
2023/05/18 05:29:38;;;;;;;8.38;4.28;;;11.60;99.90;;;;;;5071098;28;20054;-69
2023/05/18 05:32:04;;;;;;;7.70;4.45;;;11.60;99.90;;;;;;5071202;28;20033;-69
2023/05/18 05:34:29;;;;;;;5.55;3.80;;;11.70;99.90;;;;;;5070982;28;20052;-68
2023/05/18 05:36:56;;;;;;;5.95;3.83;;;11.80;99.90;;;;;;5071323;28;20442;-69
2023/05/18 05:39:22;;;;;;;6.53;3.80;;;11.80;99.90;;;;;;5069477;28;20025;-69
2023/05/18 05:41:47;;;;;;;6.65;3.75;;;11.90;99.90;;;;;;5071225;28;20016;-69
2023/05/18 05:44:13;;;;;;;4.90;3.80;;;11.80;99.90;;;;;;5071013;28;20406;-69
2023/05/18 05:46:39;;;;;;;5.15;3.92;;;11.90;99.90;;;;;;5071270;28;20391;-69
2023/05/18 05:49:05;;;;;;;7.18;4.20;;;11.90;99.90;;;;;;5070868;28;20021;-68
2023/05/18 05:51:30;;;;;;;7.25;3.92;;;11.90;99.90;;;;;;5070781;28;20033;-68
2023/05/18 05:53:56;;;;;;;6.07;4.05;;;12.00;99.90;;;;;;5070095;28;20490;-67
2023/05/18 05:56:21;;;;;;;7.35;3.90;;;12.10;99.90;;;;;;5070852;28;20483;-69
2023/05/18 05:58:47;;;;;;;6.70;4.18;;;12.00;99.90;;;;;;5070080;28;20482;-68
2023/05/18 06:01:13;;;;;;;7.43;4.10;;;12.10;99.90;;;;;;5070577;28;20104;-69
2023/05/18 06:03:38;;;;;;;6.00;3.90;;;12.10;99.90;;;;;;5070863;28;20093;-69
2023/05/18 06:06:04;;;;;;;8.95;4.40;;;12.20;99.90;;;;;;5070706;28;20059;-69
2023/05/18 06:08:30;;;;;;;5.43;3.90;;;12.30;99.90;;;;;;5070458;28;20032;-69
2023/05/18 06:10:56;;;;;;;7.07;4.10;;;12.30;99.90;;;;;;5070793;28;20035;-69
2023/05/18 06:13:21;;;;;;;7.05;3.85;;;12.30;99.90;;;;;;5070431;28;20074;-69
2023/05/18 06:15:47;;;;;;;6.78;3.90;;;12.40;99.90;;;;;;5070775;28;20028;-68
2023/05/18 06:18:13;;;;;;;7.88;3.88;;;12.40;99.90;;;;;;5069308;28;20104;-68
2023/05/18 06:20:38;;;;;;;5.25;3.63;;;12.40;99.90;;;;;;5070498;28;20066;-70
2023/05/18 06:23:04;;;;;;;6.05;4.07;;;12.30;99.90;;;;;;5070247;28;20028;-69
2023/05/18 06:25:30;;;;;;;7.82;4.03;;;12.30;99.90;;;;;;5070652;28;20117;-68
2023/05/18 06:27:55;;;;;;;6.63;4.53;;;12.30;99.90;;;;;;5071575;28;20035;-70
2023/05/18 06:30:21;;;;;;;7.32;3.92;;;12.40;99.90;;;;;;5074092;28;20059;-69
2023/05/18 06:32:47;;;;;;;7.30;4.10;;;12.50;99.90;;;;;;5074009;28;20017;-70
2023/05/18 06:35:12;;;;;;;5.35;3.70;;;12.60;99.90;;;;;;5073759;28;20059;-70
2023/05/18 06:37:38;;;;;;;5.78;3.50;;;12.50;99.90;;;;;;5073734;28;20056;-70
2023/05/18 06:40:06;;;;;;;5.93;3.70;;;12.50;99.90;;;;;;5074496;28;20105;-70
2023/05/18 06:42:32;;;;;;;7.57;4.35;;;12.60;99.90;;;;;;5073638;28;20016;-68
2023/05/18 06:44:58;;;;;;;6.15;3.60;;;12.70;99.90;;;;;;5081527;28;20040;-69
2023/05/18 06:47:24;;;;;;;7.63;3.75;;;12.80;99.90;;;;;;5094121;28;20027;-68
2023/05/18 06:49:50;;;;;;;8.80;3.80;;;12.80;99.90;;;;;;5094206;28;20046;-69
2023/05/18 06:52:16;;;;;;;5.32;3.55;;;13.00;99.90;;;;;;5093271;28;20028;-69
2023/05/18 06:54:42;;;;;;;5.88;3.90;;;13.00;99.90;;;;;;5092860;28;20035;-67
2023/05/18 06:57:07;;;;;;;12.40;4.20;;;13.00;99.90;;;;;;5094180;28;20055;-70
2023/05/18 06:59:33;;;;;;;8.55;3.83;;;13.10;99.90;;;;;;5093914;28;20069;-71
2023/05/18 07:01:59;;;;;;;7.82;3.90;;;13.10;99.90;;;;;;5093869;28;20036;-72
2023/05/18 07:04:25;;;;;;;7.97;3.63;;;13.10;99.90;;;;;;5093599;28;20023;-70
2023/05/18 07:06:52;;;;;;;8.30;3.83;;;13.20;99.90;;;;;;5093597;28;20494;-70
2023/05/18 07:09:18;;;;;;;7.32;3.55;;;13.40;99.90;;;;;;5093667;28;20036;-71
2023/05/18 07:11:44;;;;;;;8.38;3.60;;;13.30;99.90;;;;;;5093959;28;20434;-72
2023/05/18 07:14:10;;;;;;;8.57;3.30;;;13.30;99.90;;;;;;5093345;28;20056;-72
2023/05/18 07:16:36;;;;;;;6.22;3.55;;;13.40;99.90;;;;;;5093703;28;20048;-71
2023/05/18 07:19:03;;;;;;;9.82;3.75;;;13.50;99.90;;;;;;5093406;28;20034;-72
2023/05/18 07:21:30;;;;;;;6.57;3.42;;;13.60;99.90;;;;;;5093207;28;20031;-72
2023/05/18 07:23:56;;;;;;;7.75;3.70;;;13.60;99.90;;;;;;5093580;28;20032;-71
2023/05/18 07:26:22;;;;;;;6.30;3.67;;;13.60;99.90;;;;;;5093688;28;20566;-70
2023/05/18 07:28:48;;;;;;;6.68;3.70;;;13.70;99.90;;;;;;5093862;28;20020;-72
2023/05/18 07:31:15;;;;;;;8.27;3.22;;;13.80;99.90;;;;;;5093322;28;20024;-72
2023/05/18 07:33:41;;;;;;;6.80;3.42;;;13.80;99.90;;;;;;5093297;28;20033;-71
2023/05/18 07:36:07;;;;;;;6.25;3.33;;;13.90;99.90;;;;;;5092948;28;20070;-71
2023/05/18 07:38:33;;;;;;;6.85;3.25;;;14.00;99.90;;;;;;5093052;28;20024;-71
2023/05/18 07:41:01;;;;;;;6.85;3.33;;;14.10;99.90;;;;;;5093533;28;20028;-72
2023/05/18 07:43:26;;;;;;;6.57;3.05;;;14.10;99.90;;;;;;5093227;28;20118;-70
2023/05/18 07:45:52;;;;;;;7.15;3.58;;;14.20;99.90;;;;;;5092807;28;20123;-72
2023/05/18 07:48:18;;;;;;;7.15;3.75;;;14.20;99.90;;;;;;5093011;28;20123;-71
2023/05/18 07:50:43;;;;;;;6.75;3.25;;;14.20;99.90;;;;;;5092604;28;20035;-71
2023/05/18 07:53:09;;;;;;;8.63;3.70;;;14.30;99.90;;;;;;5093147;28;20027;-71
2023/05/18 07:55:35;;;;;;;5.88;2.88;;;14.40;99.90;;;;;;5091371;28;20446;-71
2023/05/18 07:58:00;;;;;;;6.47;3.22;;;14.40;99.90;;;;;;5092910;28;20025;-71
2023/05/18 08:00:26;;;;;;;5.68;3.00;;;14.50;99.90;;;;;;5092736;28;20504;-71
2023/05/18 08:02:52;;;;;;;7.03;2.97;;;14.60;99.90;;;;;;5092639;28;20055;-71
2023/05/18 08:05:21;;;;;;;6.90;2.97;;;14.60;99.90;;;;;;5092368;28;20028;-72
2023/05/18 08:07:47;;;;;;;4.80;3.03;;;14.60;99.90;;;;;;5092718;28;20024;-71
2023/05/18 08:10:13;;;;;;;6.85;3.20;;;14.70;99.90;;;;;;5092504;28;20024;-71
2023/05/18 08:12:39;;;;;;;7.07;3.15;;;14.80;99.90;;;;;;5092708;28;20490;-71
2023/05/18 08:15:05;;;;;;;5.38;3.30;;;14.90;99.90;;;;;;5092903;28;20023;-71
2023/05/18 08:17:31;;;;;;;7.05;3.25;;;14.90;99.90;;;;;;5092375;28;20024;-70
2023/05/18 08:19:57;;;;;;;7.65;3.10;;;15.00;99.90;;;;;;5092251;28;20359;-70
2023/05/18 08:22:22;;;;;;;5.85;2.90;;;15.10;99.90;;;;;;5092312;28;20060;-70
2023/05/18 08:24:48;;;;;;;5.25;3.30;;;15.10;99.90;;;;;;5090982;28;20039;-71
2023/05/18 08:27:14;;;;;;;6.88;3.28;;;15.20;99.90;;;;;;5092296;28;20478;-70
2023/05/18 08:29:39;;;;;;;4.95;2.70;;;15.30;99.90;;;;;;5092315;28;20035;-71
2023/05/18 08:32:06;;;;;;;5.75;3.00;;;15.30;99.90;;;;;;5092210;28;20016;-71
2023/05/18 08:34:33;;;;;;;7.18;3.15;;;15.50;99.90;;;;;;5091675;28;20043;-71
2023/05/18 08:36:59;;;;;;;7.38;2.90;;;15.50;99.90;;;;;;5092003;28;20031;-70
2023/05/18 08:39:25;;;;;;;4.57;2.70;;;15.70;99.90;;;;;;5092185;28;20392;-71
2023/05/18 08:42:02;;;;;;;6.57;3.30;;;15.70;99.90;;;;;;5092047;28;20024;-71
2023/05/18 08:44:38;;;;;;;8.88;3.00;;;15.70;99.90;;;;;;5091826;28;20020;-71
2023/05/18 08:47:09;;;;;;;8.35;3.05;;;15.70;99.90;;;;;;5091475;28;20115;-71
2023/05/18 08:49:36;;;;;;;8.45;3.00;;;15.90;99.90;;;;;;5091966;28;20020;-71
2023/05/18 08:52:03;;;;;;;6.63;2.83;;;16.00;99.90;;;;;;5091353;28;20031;-70
2023/05/18 08:54:30;;;;;;;7.72;2.85;;;16.10;99.90;;;;;;5091679;28;20016;-70
2023/05/18 08:56:57;;;;;;;7.97;3.33;;;16.10;99.90;;;;;;5091815;28;20059;-71
2023/05/18 08:59:25;;;;;;;6.40;3.13;;;16.10;99.90;;;;;;5091703;28;20044;-71
2023/05/18 09:01:53;;;;;;;8.98;2.97;;;16.30;99.90;;;;;;5091479;28;20025;-71
2023/05/18 09:04:20;;;;;;;6.63;2.60;;;16.30;99.90;;;;;;5091982;28;20059;-71
2023/05/18 09:06:47;;;;;;;7.30;2.85;;;16.50;99.90;;;;;;5091573;28;20040;-71
2023/05/18 09:09:14;;;;;;;5.68;3.10;;;16.40;99.90;;;;;;5091571;28;20009;-71
2023/05/18 09:11:40;;;;;;;7.50;3.10;;;16.20;99.90;;;;;;5091607;28;20032;-70
2023/05/18 09:14:06;;;;;;;8.80;2.97;;;16.20;99.90;;;;;;5091426;28;20027;-70
2023/05/18 09:16:32;;;;;;;7.55;2.90;;;16.30;99.90;;;;;;5091310;28;20758;-70
2023/05/18 09:18:58;;;;;;;7.63;2.85;;;16.50;99.90;;;;;;5091794;28;20028;-71
2023/05/18 09:21:25;;;;;;;9.18;2.88;;;16.60;99.90;;;;;;5091482;28;20032;-71
2023/05/18 09:23:51;;;;;;;6.95;2.90;;;16.80;99.90;;;;;;5091426;28;20097;-70
2023/05/18 09:26:18;;;;;;;10.68;3.05;;;16.90;99.90;;;;;;5091710;28;20100;-71
2023/05/18 09:28:46;;;;;;;8.07;2.80;;;16.90;99.90;;;;;;5091299;28;20020;-70
2023/05/18 09:31:23;;;;;;;6.38;2.63;;;17.20;99.90;;;;;;5090793;28;20028;-70
2023/05/18 09:33:50;;;;;;;8.60;3.05;;;17.10;99.90;;;;;;5091561;28;20486;-70
2023/05/18 09:36:16;;;;;;;6.75;2.78;;;17.10;99.90;;;;;;5091146;28;20492;-70
2023/05/18 09:38:45;;;;;;;7.18;2.60;;;17.10;99.90;;;;;;5091417;28;20042;-70
2023/05/18 09:41:17;;;;;;;9.00;3.03;;;17.20;99.90;;;;;;5091484;28;20111;-70
2023/05/18 09:43:44;;;;;;;5.70;2.60;;;17.40;99.90;;;;;;5091107;28;20111;-71
2023/05/18 09:46:11;;;;;;;6.72;3.00;;;17.40;99.90;;;;;;5090859;28;20115;-71
2023/05/18 09:48:42;;;;;;;6.60;2.85;;;17.50;99.90;;;;;;5091193;28;20651;-70
2023/05/18 09:51:14;;;;;;;7.13;2.55;;;17.50;99.90;;;;;;5091553;28;20028;-70
2023/05/18 09:53:41;;;;;;;8.02;2.85;;;17.60;99.90;;;;;;5091042;28;20047;-70
2023/05/18 09:56:10;;;;;;;6.13;2.70;;;17.70;99.90;;;;;;5091217;28;20039;-70
2023/05/18 09:58:38;;;;;;;7.00;2.60;;;17.70;99.90;;;;;;5090904;28;20032;-70
2023/05/18 10:01:04;;;;;;;7.47;3.75;;;17.80;99.90;;;;;;5091147;28;20134;-70
2023/05/18 10:03:37;;;;;;;15.07;5.78;;;17.80;99.90;;;;;;5094948;28;20107;-70
2023/05/18 10:06:12;;;;;;;9.68;4.40;;;17.80;99.90;;;;;;5095007;28;20035;-70
2023/05/18 10:08:38;;;;;;;8.82;3.70;;;17.80;99.90;;;;;;5095228;28;20027;-70
2023/05/18 10:11:05;;;;;;;8.98;3.33;;;17.90;99.90;;;;;;5095161;28;20371;-70
2023/05/18 10:13:32;;;;;;;5.75;2.70;;;17.90;99.90;;;;;;5094919;28;20103;-70
2023/05/18 10:16:03;;;;;;;6.50;3.03;;;17.80;99.90;;;;;;5094590;28;20024;-70
2023/05/18 10:18:31;;;;;;;7.05;2.90;;;18.10;99.90;;;;;;5094770;28;20035;-69
2023/05/18 10:20:58;;;;;;;7.85;3.08;;;18.20;99.90;;;;;;5095109;28;20036;-69
2023/05/18 10:23:26;;;;;;;9.25;2.80;;;18.20;99.90;;;;;;5094784;28;20021;-70
2023/05/18 10:25:53;;;;;;;6.65;2.80;;;18.20;99.90;;;;;;5094672;28;20028;-70
2023/05/18 10:28:37;;;;;;;5.60;3.00;;;18.30;99.90;;;;;;5094515;28;20034;-70
2023/05/18 10:31:05;;;;;;;9.02;2.80;;;18.40;99.90;;;;;;5094465;28;20069;-70
2023/05/18 10:33:31;;;;;;;8.23;3.30;;;18.40;99.90;;;;;;5094427;28;20551;-70
2023/05/18 10:35:57;;;;;;;9.05;3.15;;;18.50;99.90;;;;;;5094731;28;20071;-70
2023/05/18 10:38:25;;;;;;;9.15;2.72;;;18.60;99.90;;;;;;5094379;28;20079;-70
2023/05/18 10:40:56;;;;;;;10.60;3.30;;;18.60;99.90;;;;;;5094272;28;20020;-70
2023/05/18 10:43:26;;;;;;;5.55;2.78;;;18.70;99.90;;;;;;5092979;28;20470;-70
2023/05/18 10:45:57;;;;;;;8.35;3.20;;;18.80;99.90;;;;;;5094662;28;20115;-70
2023/05/18 10:48:24;;;;;;;8.23;3.05;;;18.90;99.90;;;;;;5094191;28;20052;-70
2023/05/18 10:50:52;;;;;;;6.30;3.15;;;18.90;99.90;;;;;;5094433;28;20032;-71
2023/05/18 10:53:20;;;;;;;7.60;2.72;;;18.90;99.90;;;;;;5094244;28;20024;-70
2023/05/18 10:55:52;;;;;;;5.85;2.50;;;19.10;99.90;;;;;;5094178;28;20490;-70
2023/05/18 10:58:20;;;;;;;6.03;2.47;;;19.00;99.90;;;;;;5093719;28;20483;-70
2023/05/18 11:00:50;;;;;;;7.63;2.70;;;19.10;99.90;;;;;;5093968;28;20031;-70
2023/05/18 11:03:17;;;;;;;5.32;2.10;;;19.10;99.90;;;;;;5094077;28;20082;-70
2023/05/18 11:05:47;;;;;;;6.40;2.50;;;19.20;99.90;;;;;;5094074;28;20107;-70
2023/05/18 11:08:24;;;;;;;8.85;3.00;;;19.20;99.90;;;;;;5093722;28;20055;-70
2023/05/18 11:11:02;;;;;;;7.00;2.95;;;19.20;99.90;;;;;;5093643;28;20077;-70
2023/05/18 11:13:32;;;;;;;5.80;2.75;;;19.40;99.90;;;;;;5092950;28;20444;-70
2023/05/18 11:15:58;;;;;;;9.07;2.90;;;19.30;99.90;;;;;;5093854;28;20107;-70
2023/05/18 11:18:50;;;;;;;7.82;2.63;;;19.10;99.90;;;;;;5093619;28;20472;-70
2023/05/18 11:21:30;;;;;;;9.98;4.35;;;19.10;99.90;;;;;;5093820;28;20024;-70
2023/05/18 11:24:15;;;;;;;9.77;4.35;;;19.30;99.90;;;;;;5093487;28;20051;-70
2023/05/18 11:26:42;;;;;;;9.38;4.15;;;19.60;99.90;;;;;;5093138;28;20044;-69
2023/05/18 11:29:18;;;;;;;6.82;2.90;;;19.80;99.90;;;;;;5093545;28;20031;-70
2023/05/18 11:31:45;;;;;;;7.47;2.80;;;19.90;99.90;;;;;;5093739;28;20078;-70
2023/05/18 11:34:38;;;;;;;7.28;2.63;;;20.00;99.90;;;;;;5093308;28;20032;-72
2023/05/18 11:37:05;;;;;;;6.63;2.63;;;19.80;99.90;;;;;;5093357;28;20567;-72
2023/05/18 11:39:32;;;;;;;7.50;2.60;;;20.00;99.90;;;;;;5093119;28;20486;-72
2023/05/18 11:42:03;;;;;;;5.03;2.38;;;20.20;99.90;;;;;;5093343;28;20028;-72
2023/05/18 11:44:30;;;;;;;5.40;2.63;;;20.00;99.90;;;;;;5093025;28;20029;-72
2023/05/18 11:47:04;;;;;;;9.68;2.80;;;20.20;99.90;;;;;;5093047;28;20039;-72
2023/05/18 11:49:46;;;;;;;6.00;2.90;;;20.10;99.90;;;;;;5093439;28;20020;-72
2023/05/18 11:52:11;;;;;;;6.10;2.67;;;20.00;99.90;;;;;;5093350;28;20054;-72
2023/05/18 11:54:49;;;;;;;7.72;3.08;;;20.00;99.90;;;;;;5092751;28;20466;-73
2023/05/18 11:57:17;;;;;;;7.78;3.17;;;20.10;99.90;;;;;;5092543;28;20486;-72
2023/05/18 11:59:47;;;;;;;8.68;3.00;;;20.10;99.90;;;;;;5093237;28;20512;-72
2023/05/18 12:02:20;;;;;;;7.10;3.28;;;19.90;99.90;;;;;;5092863;28;20056;-73
2023/05/18 12:04:49;;;;;;;12.25;3.13;;;19.90;99.90;;;;;;5092613;28;20146;-72
2023/05/18 12:07:18;;;;;;;10.63;3.13;;;20.00;99.90;;;;;;5092691;28;20036;-72
2023/05/18 12:09:45;;;;;;;7.10;2.67;;;20.30;99.90;;;;;;5092587;28;20024;-72
2023/05/18 12:12:12;;;;;;;7.55;3.70;;;20.40;99.90;;;;;;5092371;28;20043;-72
2023/05/18 12:14:47;;;;;;;6.82;3.30;;;20.40;99.90;;;;;;5092595;28;20035;-72
2023/05/18 12:17:12;;;;;;;6.22;2.92;;;20.40;99.90;;;;;;5092960;28;20028;-73
2023/05/18 12:19:47;;;;;;;6.32;2.72;;;20.20;99.90;;;;;;5092586;28;20027;-72
2023/05/18 12:22:13;;;;;;;6.88;2.58;;;20.20;99.90;;;;;;5092318;28;20107;-72
2023/05/18 12:24:40;;;;;;;6.80;2.78;;;20.30;99.90;;;;;;5091810;28;20119;-72
2023/05/18 12:27:10;;;;;;;7.63;3.45;;;20.50;99.90;;;;;;5092238;28;20065;-72
2023/05/18 12:29:41;;;;;;;6.68;2.80;;;20.60;99.90;;;;;;5092111;28;20077;-72
2023/05/18 12:32:08;;;;;;;10.10;3.00;;;20.30;99.90;;;;;;5092220;28;20032;-73
2023/05/18 12:34:34;;;;;;;6.28;2.83;;;20.40;99.90;;;;;;5092011;28;20111;-72
2023/05/18 12:37:00;;;;;;;6.28;3.17;;;20.90;99.90;;;;;;5092083;28;20060;-72
2023/05/18 12:39:25;;;;;;;8.45;3.17;;;20.90;99.90;;;;;;5091849;28;20445;-72
2023/05/18 12:41:51;;;;;;;7.60;3.40;;;20.50;99.90;;;;;;5092668;28;20043;-72
2023/05/18 12:44:17;;;;;;;9.13;2.95;;;20.50;99.90;;;;;;5092056;28;20394;-72
2023/05/18 12:46:43;;;;;;;5.75;3.10;;;20.80;99.90;;;;;;5092109;28;20067;-72
2023/05/18 12:49:09;;;;;;;8.38;3.22;;;21.00;99.90;;;;;;5091989;28;20124;-72
2023/05/18 12:51:38;;;;;;;7.13;3.30;;;21.60;99.90;;;;;;5091983;28;20028;-72